Time;durP1;ratioP1;P1;durP2;ratioP2;P2;SDS_P1;SDS_P2;PMS_P1;PMS_P2;Temp;Humidity;BMP_temperature;BMP_pressure;BME280_temperature;BME280_humidity;BME280_pressure;Samples;Min_cycle;Max_cycle;Signal;HPM_P1;HPM_P2
2022/04/30 05:43:06;;;;;;;;;22.25;19.00;;;;;11.27;100.00;102023.50;6186234;22;45802;-96
2022/04/30 05:45:31;;;;;;;;;22.75;19.50;;;;;11.30;100.00;102012.28;6151182;23;45258;-91
2022/04/30 05:47:56;;;;;;;;;19.75;16.00;;;;;11.47;100.00;102015.03;6174051;22;45336;-90
2022/04/30 05:50:22;;;;;;;;;27.00;23.00;;;;;11.81;100.00;102032.91;6146587;22;47927;-90
2022/04/30 05:52:47;;;;;;;;;21.75;19.75;;;;;11.96;100.00;102040.81;6145896;22;45668;-90
2022/04/30 05:55:13;;;;;;;;;24.75;22.00;;;;;12.14;100.00;102049.75;6146407;23;45430;-89
2022/04/30 05:57:39;;;;;;;;;23.75;18.00;;;;;12.09;100.00;102048.53;6173709;23;45408;-89
2022/04/30 06:00:05;;;;;;;;;29.25;22.75;;;;;12.17;100.00;102058.75;6173928;23;46069;-90
2022/04/30 06:02:30;;;;;;;;;26.25;21.00;;;;;12.23;100.00;102063.50;6146967;23;45358;-89
2022/04/30 06:04:56;;;;;;;;;24.50;21.25;;;;;12.30;100.00;102077.91;6173845;22;46012;-89
2022/04/30 06:07:21;;;;;;;;;27.75;19.75;;;;;12.32;100.00;102078.91;6146022;23;45520;-89
2022/04/30 06:09:46;;;;;;;;;21.75;17.00;;;;;12.38;100.00;102087.19;6172649;23;45365;-90
2022/04/30 06:12:12;;;;;;;;;20.75;20.00;;;;;12.46;100.00;102081.47;6172957;23;45373;-89
2022/04/30 06:14:37;;;;;;;;;24.75;21.00;;;;;12.57;100.00;102083.03;6147219;23;45435;-90
2022/04/30 06:17:03;;;;;;;;;27.00;22.75;;;;;12.63;100.00;102100.88;6146807;23;45455;-94
2022/04/30 06:19:28;;;;;;;;;31.00;20.25;;;;;12.66;100.00;102100.16;6173143;23;46048;-89
2022/04/30 06:21:54;;;;;;;;;32.50;23.00;;;;;12.65;100.00;102107.19;6145414;23;45330;-91
2022/04/30 06:24:19;;;;;;;;;30.25;23.25;;;;;12.62;100.00;102121.09;6144889;23;45691;-90
2022/04/30 06:26:45;;;;;;;;;26.75;19.25;;;;;12.58;100.00;102112.88;6173989;23;45283;-89
2022/04/30 06:29:11;;;;;;;;;26.75;23.25;;;;;12.58;100.00;102121.69;6172966;23;45800;-89
2022/04/30 06:31:37;;;;;;;;;22.75;21.00;;;;;12.59;100.00;102118.25;6146177;23;45289;-90
2022/04/30 06:34:03;;;;;;;;;21.00;19.25;;;;;12.57;100.00;102118.97;6173862;23;45317;-89
2022/04/30 06:36:29;;;;;;;;;22.75;19.75;;;;;12.61;100.00;102118.34;6146217;23;45410;-94
2022/04/30 06:38:54;;;;;;;;;20.75;18.00;;;;;12.68;100.00;102128.41;6173352;23;45281;-92
2022/04/30 06:41:21;;;;;;;;;23.50;18.00;;;;;12.71;100.00;102127.69;6147189;23;45509;-91
2022/04/30 06:43:49;;;;;;;;;21.50;19.75;;;;;12.78;100.00;102129.84;6173648;23;45360;-93
2022/04/30 06:46:14;;;;;;;;;22.50;18.25;;;;;12.91;100.00;102130.59;6147545;23;45820;-91
2022/04/30 06:48:40;;;;;;;;;20.00;17.75;;;;;12.99;100.00;102126.66;6147002;23;48119;-92
2022/04/30 06:51:05;;;;;;;;;21.50;18.75;;;;;13.14;100.00;102136.28;6146806;23;45448;-93
2022/04/30 06:59:01;;;;;;;;;22.00;19.50;;;;;13.44;100.00;102154.66;6173900;23;45617;-93
2022/04/30 07:03:55;;;;;;;;;24.00;18.25;;;;;13.67;100.00;102160.34;6173935;23;45313;-92
2022/04/30 07:06:21;;;;;;;;;21.50;17.75;;;;;13.80;100.00;102166.31;6146690;23;45766;-94
2022/04/30 07:08:46;;;;;;;;;23.00;17.25;;;;;13.92;100.00;102172.25;6172327;23;46117;-93
2022/04/30 07:11:11;;;;;;;;;26.00;18.25;;;;;14.04;100.00;102179.94;6146660;23;45937;-91
2022/04/30 07:13:37;;;;;;;;;18.75;18.25;;;;;14.11;100.00;102182.91;6146168;22;45553;-91
2022/04/30 07:16:04;;;;;;;;;12.50;10.75;;;;;14.16;100.00;102200.81;6147175;23;45580;-92
2022/04/30 07:18:29;;;;;;;;;28.75;21.75;;;;;14.15;100.00;102200.72;6175159;23;45504;-92
2022/04/30 07:20:55;;;;;;;;;22.50;19.25;;;;;14.11;100.00;102207.56;6142110;22;45611;-92
2022/04/30 07:23:21;;;;;;;;;21.75;18.50;;;;;14.05;100.00;102208.13;6172865;23;45336;-91
2022/04/30 07:25:46;;;;;;;;;14.25;13.75;;;;;14.08;100.00;102215.31;6147740;23;45299;-92
2022/04/30 07:28:11;;;;;;;;;23.50;16.75;;;;;14.12;100.00;102209.38;6147001;23;47299;-92
2022/04/30 07:30:37;;;;;;;;;18.25;15.75;;;;;14.21;100.00;102210.69;6147572;22;45286;-92
2022/04/30 07:33:02;;;;;;;;;17.25;16.25;;;;;14.29;100.00;102217.31;6173875;23;45305;-91
2022/04/30 07:35:28;;;;;;;;;24.25;18.25;;;;;14.36;100.00;102213.25;6173856;22;45296;-91
2022/04/30 07:37:53;;;;;;;;;23.25;20.50;;;;;14.48;100.00;102218.31;6172527;23;47581;-90
2022/04/30 07:40:18;;;;;;;;;20.25;17.50;;;;;14.59;100.00;102224.13;6167367;23;56245;-92
2022/04/30 07:42:44;;;;;;;;;21.50;21.00;;;;;14.70;100.00;102230.00;6169915;23;45815;-93
2022/04/30 07:45:10;;;;;;;;;19.50;17.00;;;;;14.80;100.00;102231.38;6172804;23;45607;-91
2022/04/30 07:47:36;;;;;;;;;18.75;16.75;;;;;14.92;100.00;102223.22;6146506;23;48044;-92
2022/04/30 07:50:02;;;;;;;;;23.75;18.50;;;;;14.95;100.00;102226.91;6146562;23;45332;-93
2022/04/30 07:52:27;;;;;;;;;19.75;18.50;;;;;14.95;100.00;102218.06;6146385;23;45385;-92
2022/04/30 07:54:53;;;;;;;;;26.75;21.25;;;;;15.05;100.00;102225.63;6147254;23;45250;-92
2022/04/30 07:57:20;;;;;;;;;18.75;17.00;;;;;15.18;100.00;102213.03;6146693;23;47143;-93
2022/04/30 07:59:46;;;;;;;;;20.75;20.00;;;;;15.42;100.00;102220.38;6147427;23;45309;-92
2022/04/30 08:02:11;;;;;;;;;18.75;13.00;;;;;15.60;100.00;102227.38;6173924;23;45596;-94
2022/04/30 08:04:37;;;;;;;;;20.50;19.25;;;;;15.77;100.00;102232.59;6146985;23;45345;-93
2022/04/30 08:07:02;;;;;;;;;22.00;20.50;;;;;15.98;100.00;102233.59;6147265;23;48024;-93
2022/04/30 08:09:28;;;;;;;;;26.25;21.50;;;;;16.19;100.00;102234.56;6148477;23;45379;-93
2022/04/30 08:11:53;;;;;;;;;19.75;17.75;;;;;16.30;99.72;102245.66;6148752;23;45580;-92
2022/04/30 08:14:18;;;;;;;;;18.00;16.50;;;;;16.48;99.03;102248.25;6148022;23;45289;-93
2022/04/30 08:16:43;;;;;;;;;15.75;15.50;;;;;16.71;99.11;102244.78;6174475;23;46151;-93
2022/04/30 08:19:09;;;;;;;;;23.25;16.00;;;;;16.97;98.59;102260.94;6172582;23;55578;-91
2022/04/30 08:21:34;;;;;;;;;20.25;18.50;;;;;17.12;98.04;102259.78;6145609;23;45656;-90
2022/04/30 08:23:59;;;;;;;;;19.50;17.50;;;;;17.18;95.96;102273.34;6145124;23;45163;-91
2022/04/30 08:26:25;;;;;;;;;18.50;14.75;;;;;17.10;96.51;102267.69;6146585;23;48118;-92
2022/04/30 08:28:50;;;;;;;;;17.25;14.50;;;;;17.08;96.54;102269.38;6173011;23;45341;-92
2022/04/30 08:31:16;;;;;;;;;19.25;19.00;;;;;17.21;96.26;102268.19;6146733;23;45417;-90
2022/04/30 08:33:41;;;;;;;;;18.00;17.50;;;;;17.25;94.83;102277.16;6146299;22;45417;-91
2022/04/30 08:36:07;;;;;;;;;20.75;18.00;;;;;17.29;94.99;102282.66;6173501;23;46027;-91
2022/04/30 08:38:33;;;;;;;;;21.75;14.75;;;;;17.31;94.41;102285.38;6172942;23;45346;-91
2022/04/30 08:40:58;;;;;;;;;19.25;14.75;;;;;17.35;94.21;102283.75;6174492;23;45349;-90
2022/04/30 08:43:26;;;;;;;;;18.00;13.67;;;;;17.36;93.96;102281.19;6189062;22;45302;-89
2022/04/30 08:45:51;;;;;;;;;19.25;15.75;;;;;17.38;93.29;102289.19;6300946;22;46646;-90
2022/04/30 08:48:17;;;;;;;;;20.33;12.67;;;;;17.37;92.71;102288.28;6300085;22;45559;-91
2022/04/30 08:50:45;;;;;;;;;15.67;13.33;;;;;17.34;92.26;102289.91;6298483;22;45216;-91
2022/04/30 08:53:11;;;;;;;;;13.25;13.25;;;;;17.34;92.32;102293.47;6298541;22;45532;-91
2022/04/30 08:55:37;;;;;;;;;12.75;12.75;;;;;17.35;92.04;102284.66;6302124;22;45529;-92
2022/04/30 08:58:02;;;;;;;;;17.25;16.00;;;;;17.30;92.22;102283.56;6300549;22;45770;-92
2022/04/30 09:00:28;;;;;;;;;14.00;12.75;;;;;17.36;91.43;102291.78;6300197;22;45289;-91
2022/04/30 09:02:57;;;;;;;;;18.00;14.00;;;;;17.40;90.74;102285.75;6302713;22;45221;-92
2022/04/30 09:05:30;;;;;;;;;14.67;12.33;;;;;17.42;91.02;102286.72;6303978;22;46469;-92
2022/04/30 09:07:57;;;;;;;;;11.00;9.00;;;;;17.48;91.53;102285.16;6303106;22;45312;-92
2022/04/30 09:10:30;;;;;;;;;14.00;11.33;;;;;17.60;90.64;102283.00;6299447;22;45293;-93
2022/04/30 09:13:17;;;;;;;;;12.67;11.33;;;;;17.71;89.28;102303.78;6302061;22;45458;-89
2022/04/30 09:15:44;;;;;;;;;14.00;14.00;;;;;17.73;89.04;102297.69;6299327;22;48106;-91
2022/04/30 09:18:11;;;;;;;;;13.00;12.00;;;;;17.76;88.05;102299.56;6299257;22;45710;-91
2022/04/30 09:20:48;;;;;;;;;10.00;9.00;;;;;17.82;88.15;102296.25;6303092;22;45511;-92
2022/04/30 09:23:29;;;;;;;;;9.33;9.33;;;;;17.84;87.74;102292.81;6301015;22;45326;-91
2022/04/30 09:25:57;;;;;;;;;15.00;12.33;;;;;17.92;87.06;102303.75;6297883;22;47505;-90
2022/04/30 09:28:27;;;;;;;;;12.00;11.33;;;;;17.98;86.81;102298.69;6297017;22;45790;-92
2022/04/30 09:31:03;;;;;;;;;13.00;9.67;;;;;18.02;85.81;102315.66;6299906;22;45289;-90
2022/04/30 09:33:28;;;;;;;;;11.67;11.00;;;;;18.06;86.01;102303.41;6298021;22;45309;-92
2022/04/30 09:38:45;;;;;;;;;8.33;7.67;;;;;18.37;86.04;102309.03;6298987;22;45367;-90
2022/04/30 09:41:10;;;;;;;;;10.00;9.00;;;;;18.60;85.51;102299.25;6298443;22;45498;-90
2022/04/30 09:43:36;;;;;;;;;11.67;10.33;;;;;18.85;85.38;102308.13;6276026;22;52303;-90
2022/04/30 09:46:04;;;;;;;;;9.33;9.33;;;;;19.01;84.38;102315.75;6171450;23;46147;-87
2022/04/30 09:54:00;;;;;;;;;10.33;10.00;;;;;20.54;83.31;102325.97;6172116;23;45387;-90
2022/04/30 09:56:37;;;;;;;;;9.00;9.00;;;;;21.31;83.00;102317.38;6172047;23;46518;-90
2022/04/30 09:59:07;;;;;;;;;8.67;8.00;;;;;22.52;83.43;102304.06;6277633;22;45645;-90
2022/04/30 10:01:34;;;;;;;;;9.67;8.67;;;;;23.21;81.88;102318.78;6274412;22;45454;-89
2022/04/30 10:04:06;;;;;;;;;10.00;9.00;;;;;23.42;80.65;102308.41;6171873;23;45419;-91
2022/04/30 10:06:32;;;;;;;;;9.00;9.00;;;;;23.54;79.33;102326.47;6173707;23;45763;-93
2022/04/30 10:08:58;;;;;;;;;11.33;9.33;;;;;23.61;79.17;102332.81;6277430;22;45783;-88
2022/04/30 10:11:41;;;;;;;;;9.33;8.00;;;;;23.92;78.54;102335.06;6175609;23;45455;-90
2022/04/30 10:14:24;;;;;;;;;14.67;11.67;;;;;24.54;78.58;102325.19;6278398;22;45583;-90
2022/04/30 10:19:35;;;;;;;;;12.00;6.33;;;;;25.32;74.94;102337.63;6172404;23;45411;-91
2022/04/30 10:22:16;;;;;;;;;9.00;7.67;;;;;25.35;73.14;102332.31;6171039;23;45285;-89
2022/04/30 10:24:47;;;;;;;;;8.33;7.67;;;;;25.87;74.06;102330.03;6172245;22;45397;-90
2022/04/30 10:27:14;;;;;;;;;9.33;8.00;;;;;26.64;72.55;102333.06;6276765;22;47156;-89
2022/04/30 10:29:51;;;;;;;;;8.67;7.00;;;;;26.84;70.91;102342.97;6276277;22;45666;-91
2022/04/30 10:32:33;;;;;;;;;13.00;11.67;;;;;26.85;70.19;102339.41;6273719;22;45432;-91
2022/04/30 10:35:00;;;;;;;;;7.00;7.00;;;;;27.14;69.08;102335.00;6171314;23;45559;-91
2022/04/30 10:37:37;;;;;;;;;12.67;10.00;;;;;27.86;70.49;102340.34;6282108;22;47318;-90
2022/04/30 10:40:06;;;;;;;;;10.33;9.00;;;;;28.94;69.19;102325.47;6169628;22;45355;-91
2022/04/30 10:42:38;;;;;;;;;10.33;8.33;;;;;30.18;69.50;102321.59;6276914;22;45317;-89
2022/04/30 10:45:04;;;;;;;;;12.33;10.33;;;;;32.21;67.03;102322.78;6170959;22;45425;-91
2022/04/30 10:47:30;;;;;;;;;8.00;8.00;;;;;34.38;67.25;102327.31;6171222;22;45313;-88
2022/04/30 10:49:55;;;;;;;;;8.00;7.67;;;;;36.45;64.65;102322.88;6171660;22;45296;-89
2022/04/30 10:52:24;;;;;;;;;7.67;7.67;;;;;38.08;61.60;102325.97;6276927;22;45477;-89
2022/04/30 10:54:50;;;;;;;;;10.33;8.00;;;;;39.39;59.18;102337.81;6276375;22;45469;-89
2022/04/30 10:57:16;;;;;;;;;11.67;10.00;;;;;40.64;56.48;102345.69;6275418;22;47404;-90
2022/04/30 10:59:41;;;;;;;;;8.00;8.00;;;;;41.69;54.21;102330.28;6169307;22;45395;-91
2022/04/30 11:02:11;;;;;;;;;7.67;7.33;;;;;42.77;52.28;102334.31;6276133;22;45342;-89
2022/04/30 11:04:37;;;;;;;;;7.33;7.33;;;;;43.73;49.54;102338.75;6173916;23;45292;-91
2022/04/30 11:07:03;;;;;;;;;7.33;7.33;;;;;44.68;48.09;102328.13;6278330;22;55201;-92
2022/04/30 11:09:29;;;;;;;;;7.67;6.00;;;;;45.53;46.71;102324.31;6171796;23;45292;-91
2022/04/30 11:11:56;;;;;;;;;3.67;3.67;;;;;46.26;43.93;102323.00;6273584;22;45480;-91
2022/04/30 11:14:23;;;;;;;;;7.67;7.33;;;;;45.98;41.71;102325.31;6277931;22;45348;-89
2022/04/30 11:16:49;;;;;;;;;9.00;6.67;;;;;46.26;42.10;102323.00;6277413;22;47045;-89
2022/04/30 11:19:20;;;;;;;;;4.67;4.33;;;;;46.92;41.15;102319.34;6173336;22;45617;-88
2022/04/30 11:21:53;;;;;;;;;7.33;5.00;;;;;47.69;39.84;102316.28;6277224;22;45389;-86
2022/04/30 11:24:27;;;;;;;;;4.00;4.00;;;;;48.34;38.97;102329.94;6275561;22;45365;-89
2022/04/30 11:26:58;;;;;;;;;6.33;4.67;;;;;48.87;38.33;102317.50;6172535;23;46243;-88
2022/04/30 11:29:24;;;;;;;;;3.33;3.33;;;;;49.18;35.38;102312.75;6172597;23;45430;-89
2022/04/30 11:31:52;;;;;;;;;5.00;5.00;;;;;49.46;35.01;102314.75;6276803;22;45340;-87
2022/04/30 11:34:18;;;;;;;;;6.00;3.00;;;;;49.89;35.03;102315.13;6276512;22;45504;-87
2022/04/30 11:36:45;;;;;;;;;3.33;3.33;;;;;50.34;35.14;102305.97;6276616;22;47920;-87
2022/04/30 11:39:12;;;;;;;;;2.67;2.67;;;;;50.80;33.96;102303.09;6276353;22;46303;-88
2022/04/30 11:41:51;;;;;;;;;4.00;3.00;;;;;51.23;34.29;102301.47;6277482;22;45394;-88
2022/04/30 11:44:24;;;;;;;;;4.00;4.00;;;;;51.68;33.34;102293.81;6276277;22;45469;-90
2022/04/30 11:46:51;;;;;;;;;3.00;3.00;;;;;51.98;31.90;102310.19;6172589;22;46435;-88
2022/04/30 11:49:22;;;;;;;;;1.00;1.00;;;;;52.26;30.95;102304.31;6277050;22;45315;-88
2022/04/30 11:51:48;;;;;;;;;2.00;2.00;;;;;52.49;30.74;102300.81;6276456;22;45451;-90
2022/04/30 11:54:17;;;;;;;;;3.67;2.33;;;;;52.65;29.79;102303.78;6171323;23;45343;-87
2022/04/30 11:56:43;;;;;;;;;2.00;2.00;;;;;52.74;29.85;102297.13;6277403;22;47306;-91
2022/04/30 11:59:09;;;;;;;;;6.00;6.00;;;;;53.03;29.73;102294.81;6277349;22;45273;-91
2022/04/30 12:01:38;;;;;;;;;3.00;3.00;;;;;53.28;29.38;102297.53;6277395;22;45306;-90
2022/04/30 12:04:14;;;;;;;;;6.00;3.33;;;;;53.42;29.23;102281.03;6275206;22;45388;-90
2022/04/30 12:06:43;;;;;;;;;1.00;1.00;;;;;53.59;29.53;102279.91;6172330;23;46172;-88
2022/04/30 12:09:12;;;;;;;;;2.00;2.00;;;;;53.71;27.07;102282.31;6171620;23;45233;-88
2022/04/30 12:11:53;;;;;;;;;2.00;2.00;;;;;53.58;27.09;102272.56;6276766;22;45816;-90
2022/04/30 12:14:19;;;;;;;;;2.67;2.00;;;;;53.68;27.56;102277.06;6277824;22;45428;-89
2022/04/30 12:16:47;;;;;;;;;5.00;5.00;;;;;54.00;26.99;102275.09;6172660;23;45901;-91
2022/04/30 12:25:00;;;;;;;;;3.00;3.00;;;;;55.16;26.32;102269.44;6168920;23;45347;-91
2022/04/30 12:27:28;;;;;;;;;3.33;3.00;;;;;55.38;27.07;102263.03;6172639;22;45560;-90
2022/04/30 12:30:06;;;;;;;;;2.00;2.00;;;;;55.76;26.67;102270.41;6277155;22;45782;-92
2022/04/30 12:32:33;;;;;;;;;2.00;2.00;;;;;56.02;26.37;102268.09;6173303;22;45332;-91
2022/04/30 12:34:59;;;;;;;;;2.00;2.00;;;;;56.35;26.21;102256.25;6172442;23;45311;-90
2022/04/30 12:37:34;;;;;;;;;2.00;2.00;;;;;56.67;26.30;102261.50;6277700;22;48176;-91
2022/04/30 12:40:00;;;;;;;;;1.67;1.67;;;;;56.85;25.51;102260.09;6173815;22;45633;-96
2022/04/30 12:42:26;;;;;;;;;2.00;1.00;;;;;56.95;25.11;102254.09;6178015;22;45223;-91
2022/04/30 12:44:51;;;;;;;;;2.00;2.00;;;;;56.79;23.39;102255.25;6280384;22;45609;-96
2022/04/30 12:47:17;;;;;;;;;1.00;1.00;;;;;56.78;25.14;102260.03;6287974;22;48768;-96
2022/04/30 12:49:42;;;;;;;;;1.00;1.00;;;;;57.03;24.59;102238.94;6180874;22;44747;-95
2022/04/30 12:52:07;;;;;;;;;4.00;2.00;;;;;57.38;24.25;102258.63;6173568;23;61736;-91
2022/04/30 12:54:33;;;;;;;;;0.33;0.33;;;;;57.78;24.06;102250.47;6175425;22;45316;-90
2022/04/30 12:56:58;;;;;;;;;1.67;1.67;;;;;58.30;23.45;102266.84;6276533;22;46960;-94
2022/04/30 12:59:25;;;;;;;;;1.00;1.00;;;;;58.62;24.09;102249.19;6173713;23;45351;-90
2022/04/30 13:01:51;;;;;;;;;2.00;2.00;;;;;59.01;23.13;102248.44;6172703;23;45431;-88
2022/04/30 13:04:18;;;;;;;;;1.67;1.67;;;;;59.40;23.44;102244.78;6276742;22;45421;-89
2022/04/30 13:06:44;;;;;;;;;2.33;2.33;;;;;59.80;23.00;102241.69;6276638;22;47264;-93
2022/04/30 13:14:37;;;;;;;;;2.67;2.67;;;;;60.19;22.28;102239.84;6174949;23;45273;-94
2022/04/30 13:17:03;;;;;;;;;3.00;2.00;;;;;60.35;22.42;102230.81;6174234;23;46283;-95
2022/04/30 13:19:31;;;;;;;;;2.00;2.00;;;;;60.61;21.88;102235.53;6173143;23;45210;-91
2022/04/30 13:21:56;;;;;;;;;1.00;1.00;;;;;60.87;21.81;102222.13;6282234;22;45574;-92
2022/04/30 13:24:21;;;;;;;;;1.00;1.00;;;;;61.41;22.27;102229.06;6172285;22;45615;-94
2022/04/30 13:26:47;;;;;;;;;1.00;1.00;;;;;61.46;21.67;102215.88;6279782;22;47427;-94
2022/04/30 13:29:12;;;;;;;;;2.00;2.00;;;;;61.64;21.41;102210.38;6176899;22;45329;-94
2022/04/30 13:31:38;;;;;;;;;1.67;1.67;;;;;61.88;21.47;102208.47;6175208;23;45316;-93
2022/04/30 13:34:04;;;;;;;;;3.67;2.00;;;;;62.20;21.22;102223.41;6174472;23;45542;-95
2022/04/30 13:36:33;;;;;;;;;3.00;2.00;;;;;62.55;21.84;102218.81;6279188;22;46962;-96
2022/04/30 13:39:00;;;;;;;;;2.00;2.00;;;;;62.96;20.92;102207.44;6173149;23;45232;-92
2022/04/30 13:41:25;;;;;;;;;2.00;2.00;;;;;63.31;20.72;102196.13;6278384;22;45561;-88
2022/04/30 13:43:51;;;;;;;;;2.00;2.00;;;;;63.35;20.39;102208.78;6170808;22;45336;-89
2022/04/30 13:46:16;;;;;;;;;1.00;1.00;;;;;62.94;20.92;102201.16;6171803;23;45517;-91
2022/04/30 13:48:42;;;;;;;;;2.00;2.00;;;;;62.35;20.51;102197.31;6144928;22;45497;-89
2022/04/30 13:51:08;;;;;;;;;1.00;1.00;;;;;62.54;21.16;102191.50;6171446;23;45373;-90
2022/04/30 13:53:33;;;;;;;;;1.00;1.00;;;;;63.15;20.18;102201.53;6170462;23;45379;-89
2022/04/30 13:55:59;;;;;;;;;3.00;3.00;;;;;63.56;20.22;102200.59;6144669;23;47081;-90
2022/04/30 13:58:24;;;;;;;;;1.00;1.00;;;;;64.08;20.62;102195.72;6144955;22;45361;-89
2022/04/30 14:00:49;;;;;;;;;3.33;2.33;;;;;63.59;20.32;102173.59;6145027;23;45338;-90
2022/04/30 14:03:17;;;;;;;;;4.00;2.00;;;;;63.23;20.62;102183.19;6145616;23;45377;-89
2022/04/30 14:05:42;;;;;;;;;2.00;2.00;;;;;61.93;20.02;102175.63;6171242;23;45328;-90
2022/04/30 14:08:09;;;;;;;;;2.00;2.00;;;;;58.28;20.21;102174.94;6277065;22;45638;-90
2022/04/30 14:10:35;;;;;;;;;3.00;3.00;;;;;54.46;21.13;102174.16;6171380;23;45407;-90
2022/04/30 14:15:44;;;;;;;;;2.67;2.67;;;;;53.49;22.77;102156.69;6171749;23;45441;-90
2022/04/30 14:18:15;;;;;;;;;1.67;1.67;;;;;54.15;22.87;102156.38;6172211;23;45297;-89
2022/04/30 14:20:41;;;;;;;;;3.00;3.00;;;;;54.75;23.00;102155.56;6144449;22;45478;-90
2022/04/30 14:23:07;;;;;;;;;3.67;2.33;;;;;54.19;22.08;102149.31;6171991;23;45447;-92
2022/04/30 14:25:34;;;;;;;;;1.67;1.67;;;;;53.32;21.91;102147.53;6143687;23;48296;-89
2022/04/30 14:28:00;;;;;;;;;2.00;2.00;;;;;53.64;22.05;102139.06;6150029;23;45402;-89
2022/04/30 14:30:26;;;;;;;;;2.33;2.00;;;;;54.10;22.34;102140.06;6171321;23;45235;-90
2022/04/30 14:32:51;;;;;;;;;2.00;2.00;;;;;54.66;22.81;102123.03;6172119;23;45334;-89
2022/04/30 14:35:16;;;;;;;;;2.67;2.00;;;;;55.12;22.55;102126.63;6171107;23;45353;-90
2022/04/30 14:37:42;;;;;;;;;3.00;3.00;;;;;55.06;22.19;102126.34;6177805;23;45684;-89
2022/04/30 14:40:08;;;;;;;;;2.67;2.67;;;;;53.38;22.63;102124.34;6149127;23;45335;-86
2022/04/30 14:42:35;;;;;;;;;4.00;3.00;;;;;51.23;22.79;102129.03;6145073;23;45389;-88
2022/04/30 14:45:00;;;;;;;;;4.00;4.00;;;;;48.38;23.59;102108.72;6170876;23;45605;-88
2022/04/30 14:47:26;;;;;;;;;3.33;3.33;;;;;45.57;24.25;102119.88;6171695;22;45274;-87
2022/04/30 14:49:55;;;;;;;;;3.00;3.00;;;;;42.98;25.35;102116.63;6171971;23;45293;-88
2022/04/30 14:52:20;;;;;;;;;3.33;3.33;;;;;40.70;26.54;102121.56;6143997;23;45261;-86
2022/04/30 14:54:45;;;;;;;;;5.33;5.33;;;;;38.78;27.52;102105.84;6170246;23;45443;-86
2022/04/30 14:57:11;;;;;;;;;6.00;5.33;;;;;37.12;28.11;102105.78;6171299;23;57918;-86
2022/04/30 14:59:36;;;;;;;;;6.00;6.00;;;;;35.60;29.76;102102.16;6171914;23;45291;-85
2022/04/30 15:02:01;;;;;;;;;4.67;4.67;;;;;34.30;30.67;102106.84;6172171;23;45420;-86
2022/04/30 15:04:27;;;;;;;;;5.67;5.00;;;;;33.07;31.35;102098.78;6144525;23;47487;-84
2022/04/30 15:06:55;;;;;;;;;4.00;4.00;;;;;32.06;32.45;102109.47;6144021;23;45658;-86
2022/04/30 15:09:20;;;;;;;;;3.00;3.00;;;;;31.11;33.23;102105.22;6143742;23;45420;-86
2022/04/30 15:11:46;;;;;;;;;6.33;4.67;;;;;30.28;33.45;102106.63;6144909;22;45403;-85
2022/04/30 15:14:11;;;;;;;;;3.00;3.00;;;;;29.57;34.20;102098.66;6171614;23;46360;-86
2022/04/30 15:16:36;;;;;;;;;4.67;4.00;;;;;28.84;35.17;102101.28;6144734;22;46877;-86
2022/04/30 15:19:02;;;;;;;;;4.67;4.67;;;;;28.22;35.51;102095.50;6171562;23;45667;-85
2022/04/30 15:21:27;;;;;;;;;4.33;4.00;;;;;27.73;36.34;102102.09;6171060;23;45396;-85
2022/04/30 15:23:52;;;;;;;;;7.00;5.00;;;;;27.28;37.11;102097.81;6143495;23;48121;-85
2022/04/30 15:26:18;;;;;;;;;5.00;5.00;;;;;26.88;37.95;102097.88;6169950;23;62407;-85
2022/04/30 15:28:43;;;;;;;;;4.00;3.00;;;;;26.51;38.71;102100.63;6144718;22;45565;-85
2022/04/30 15:31:08;;;;;;;;;3.67;3.67;;;;;26.08;39.11;102088.91;6144289;23;45294;-86
2022/04/30 15:33:34;;;;;;;;;4.67;4.00;;;;;25.66;39.98;102095.94;6144271;23;47223;-86
2022/04/30 15:36:03;;;;;;;;;6.33;5.33;;;;;25.28;40.32;102094.88;6167685;23;45325;-86
2022/04/30 15:38:28;;;;;;;;;4.67;4.67;;;;;24.96;40.96;102101.84;6171517;23;45428;-86
2022/04/30 15:40:53;;;;;;;;;3.00;3.00;;;;;24.66;40.84;102096.25;6145050;23;45453;-85
2022/04/30 15:43:18;;;;;;;;;5.67;5.67;;;;;24.39;41.24;102096.94;6183783;22;57548;-86
2022/04/30 15:45:44;;;;;;;;;5.00;5.00;;;;;24.16;41.98;102102.94;6299592;22;56189;-86
2022/04/30 15:53:56;;;;;;;;;5.67;4.33;;;;;23.41;43.12;102092.25;6299736;22;45729;-85
2022/04/30 15:56:23;;;;;;;;;4.00;4.00;;;;;23.19;42.99;102090.16;6298167;22;45318;-85
2022/04/30 15:58:50;;;;;;;;;5.00;5.00;;;;;23.01;43.12;102090.84;6299630;22;45345;-86
2022/04/30 16:01:18;;;;;;;;;4.33;4.33;;;;;22.84;44.17;102093.25;6302548;22;45672;-86
2022/04/30 16:03:43;;;;;;;;;9.33;6.67;;;;;22.68;45.11;102092.09;6301382;22;45332;-85
2022/04/30 16:06:09;;;;;;;;;6.00;4.67;;;;;22.49;45.51;102095.34;6299994;22;45328;-85
2022/04/30 16:08:35;;;;;;;;;5.00;5.00;;;;;22.32;45.41;102090.59;6300016;22;45317;-87
2022/04/30 16:11:01;;;;;;;;;7.00;5.67;;;;;22.25;45.86;102098.47;6300204;22;45347;-87
2022/04/30 16:13:26;;;;;;;;;5.67;5.00;;;;;22.17;46.66;102076.94;6298424;22;47036;-87
2022/04/30 16:15:52;;;;;;;;;7.33;7.33;;;;;22.24;47.31;102086.88;6300375;22;45475;-87
2022/04/30 16:18:20;;;;;;;;;10.33;8.00;;;;;22.24;47.49;102086.00;6292189;22;45317;-85
2022/04/30 16:20:45;;;;;;;;;8.33;8.33;;;;;22.19;47.35;102088.56;6299697;22;45522;-86
2022/04/30 16:23:11;;;;;;;;;7.67;5.00;;;;;22.05;47.30;102091.91;6299652;22;45477;-85
2022/04/30 16:25:37;;;;;;;;;7.00;6.67;;;;;21.87;47.30;102082.69;6299000;22;45685;-87
2022/04/30 16:28:03;;;;;;;;;5.00;4.00;;;;;21.74;46.81;102089.50;6299881;22;45347;-86
2022/04/30 16:30:28;;;;;;;;;8.67;8.67;;;;;21.58;47.16;102087.38;6295354;22;45332;-87
2022/04/30 16:32:54;;;;;;;;;9.00;8.00;;;;;21.41;47.21;102072.81;6296410;22;47947;-86
2022/04/30 16:35:22;;;;;;;;;8.00;8.00;;;;;21.25;47.67;102079.59;6299722;22;51090;-87
2022/04/30 16:37:47;;;;;;;;;7.00;7.00;;;;;21.15;47.84;102081.16;6297131;22;45366;-86
2022/04/30 16:40:13;;;;;;;;;8.00;7.00;;;;;21.03;47.98;102086.22;6299644;22;45333;-87
2022/04/30 16:42:39;;;;;;;;;10.00;9.00;;;;;20.97;48.13;102081.59;6298043;22;48016;-84
2022/04/30 16:45:06;;;;;;;;;6.00;5.00;;;;;20.87;48.39;102084.03;6145666;23;45432;-85
2022/04/30 16:47:31;;;;;;;;;7.67;7.33;;;;;20.79;48.10;102087.41;6174713;23;45454;-84
2022/04/30 16:49:57;;;;;;;;;8.00;8.00;;;;;20.68;48.05;102081.78;6174578;23;45626;-84
2022/04/30 16:52:25;;;;;;;;;8.00;6.00;;;;;20.58;48.29;102080.66;6148599;22;48569;-85
2022/04/30 16:57:42;;;;;;;;;6.00;6.00;;;;;20.34;48.74;102080.09;6173026;23;45372;-84
2022/04/30 17:00:11;;;;;;;;;5.33;5.33;;;;;20.26;49.24;102087.88;6172241;23;45620;-85
2022/04/30 17:02:40;;;;;;;;;6.00;6.00;;;;;20.16;49.08;102081.41;6146367;23;47173;-86
2022/04/30 17:05:08;;;;;;;;;8.00;8.00;;;;;20.14;49.03;102084.88;6174303;23;45365;-86
2022/04/30 17:07:34;;;;;;;;;7.00;7.00;;;;;20.05;48.80;102089.06;6150385;22;45332;-93
2022/04/30 17:10:01;;;;;;;;;5.00;5.00;;;;;19.96;48.83;102078.16;6147302;22;45524;-85
2022/04/30 17:12:26;;;;;;;;;7.00;6.00;;;;;19.90;49.04;102088.63;6172136;23;45384;-83
2022/04/30 17:14:51;;;;;;;;;9.00;9.00;;;;;19.79;49.55;102088.38;6147605;22;45609;-87
2022/04/30 17:17:17;;;;;;;;;5.33;4.67;;;;;19.64;49.41;102085.28;6146366;22;45917;-87
2022/04/30 17:19:42;;;;;;;;;6.67;6.67;;;;;19.54;49.55;102080.56;6173237;23;45317;-85
2022/04/30 17:22:08;;;;;;;;;9.33;8.00;;;;;19.45;49.92;102085.63;6172602;23;45326;-87
2022/04/30 17:24:33;;;;;;;;;7.00;7.00;;;;;19.38;50.07;102082.75;6172593;23;45694;-86
2022/04/30 17:27:00;;;;;;;;;5.33;5.33;;;;;19.35;50.29;102084.44;6173133;23;45649;-86
2022/04/30 17:29:26;;;;;;;;;8.00;6.33;;;;;19.28;50.64;102086.91;6146858;22;45472;-87
2022/04/30 17:40:04;;;;;;;;;6.67;5.67;;;;;19.05;51.41;102072.84;6171141;23;45305;-86
2022/04/30 17:42:30;;;;;;;;;9.67;8.00;;;;;18.99;51.63;102076.25;6168995;23;45622;-84
2022/04/30 17:44:56;;;;;;;;;11.00;9.33;;;;;18.94;52.59;102080.50;6168771;23;45738;-86
2022/04/30 17:47:21;;;;;;;;;10.00;9.00;;;;;18.89;52.33;102083.00;6170482;23;45381;-85